sensor_id;sensor_type;location;lat;lon;timestamp;pressure;altitude;pressure_sealevel;temperature;humidity
70909;BME280;58554;52.006;5.926;2023-03-01T00:00:10;102356.97;;;-2.61;51.43
70909;BME280;58554;52.006;5.926;2023-03-01T00:02:38;102356.16;;;-2.60;51.69
70909;BME280;58554;52.006;5.926;2023-03-01T00:05:05;102354.38;;;-2.61;51.57
70909;BME280;58554;52.006;5.926;2023-03-01T00:07:36;102349.16;;;-2.63;51.42
70909;BME280;58554;52.006;5.926;2023-03-01T00:10:02;102355.16;;;-2.65;51.72
70909;BME280;58554;52.006;5.926;2023-03-01T00:12:31;102360.31;;;-2.65;51.73
70909;BME280;58554;52.006;5.926;2023-03-01T00:14:58;102349.09;;;-2.66;51.90
70909;BME280;58554;52.006;5.926;2023-03-01T00:17:24;102349.06;;;-2.67;51.74
70909;BME280;58554;52.006;5.926;2023-03-01T00:19:51;102349.91;;;-2.68;51.88
70909;BME280;58554;52.006;5.926;2023-03-01T00:22:17;102341.25;;;-2.70;51.57
70909;BME280;58554;52.006;5.926;2023-03-01T00:24:47;102336.00;;;-2.72;51.76
70909;BME280;58554;52.006;5.926;2023-03-01T00:27:13;102335.16;;;-2.72;51.96
70909;BME280;58554;52.006;5.926;2023-03-01T00:29:40;102336.81;;;-2.74;52.17
70909;BME280;58554;52.006;5.926;2023-03-01T00:32:06;102332.47;;;-2.75;52.10
70909;BME280;58554;52.006;5.926;2023-03-01T00:34:33;102337.63;;;-2.77;52.39
70909;BME280;58554;52.006;5.926;2023-03-01T00:36:59;102339.22;;;-2.82;52.18
70909;BME280;58554;52.006;5.926;2023-03-01T00:39:26;102335.69;;;-2.86;52.09
70909;BME280;58554;52.006;5.926;2023-03-01T00:41:55;102335.69;;;-2.87;52.01
70909;BME280;58554;52.006;5.926;2023-03-01T00:44:22;102337.34;;;-2.89;52.37
70909;BME280;58554;52.006;5.926;2023-03-01T00:46:48;102334.69;;;-2.92;52.37
70909;BME280;58554;52.006;5.926;2023-03-01T00:49:15;102336.34;;;-2.94;52.41
70909;BME280;58554;52.006;5.926;2023-03-01T00:51:41;102332.91;;;-2.95;52.43
70909;BME280;58554;52.006;5.926;2023-03-01T00:54:08;102327.66;;;-2.98;52.59
70909;BME280;58554;52.006;5.926;2023-03-01T00:56:35;102326.75;;;-2.98;52.76
70909;BME280;58554;52.006;5.926;2023-03-01T00:59:04;102320.69;;;-3.00;52.75
70909;BME280;58554;52.006;5.926;2023-03-01T01:01:31;102313.78;;;-3.01;53.45
70909;BME280;58554;52.006;5.926;2023-03-01T01:03:59;102316.31;;;-3.03;53.11
70909;BME280;58554;52.006;5.926;2023-03-01T01:06:29;102312.00;;;-3.03;52.86
70909;BME280;58554;52.006;5.926;2023-03-01T01:08:59;102312.81;;;-3.05;53.17
70909;BME280;58554;52.006;5.926;2023-03-01T01:11:27;102301.56;;;-3.07;53.20
70909;BME280;58554;52.006;5.926;2023-03-01T01:13:55;102306.69;;;-3.09;53.07
70909;BME280;58554;52.006;5.926;2023-03-01T01:16:27;102315.31;;;-3.10;52.92
70909;BME280;58554;52.006;5.926;2023-03-01T01:18:55;102311.75;;;-3.13;53.03
70909;BME280;58554;52.006;5.926;2023-03-01T01:21:24;102299.66;;;-3.14;53.34
70909;BME280;58554;52.006;5.926;2023-03-01T01:23:52;102305.66;;;-3.15;53.78
70909;BME280;58554;52.006;5.926;2023-03-01T01:26:20;102300.44;;;-3.18;53.53
70909;BME280;58554;52.006;5.926;2023-03-01T01:28:50;102304.72;;;-3.19;53.62
70909;BME280;58554;52.006;5.926;2023-03-01T01:31:19;102290.84;;;-3.21;53.65
70909;BME280;58554;52.006;5.926;2023-03-01T01:33:49;102285.63;;;-3.24;53.79
70909;BME280;58554;52.006;5.926;2023-03-01T01:36:16;102292.47;;;-3.26;54.13
70909;BME280;58554;52.006;5.926;2023-03-01T01:38:43;102288.16;;;-3.26;54.40
70909;BME280;58554;52.006;5.926;2023-03-01T01:41:12;102284.63;;;-3.29;54.66
70909;BME280;58554;52.006;5.926;2023-03-01T01:43:42;102282.03;;;-3.31;54.32
70909;BME280;58554;52.006;5.926;2023-03-01T01:46:25;102278.53;;;-3.33;54.53
70909;BME280;58554;52.006;5.926;2023-03-01T01:49:00;102285.47;;;-3.30;54.56
70909;BME280;58554;52.006;5.926;2023-03-01T01:51:33;102289.75;;;-3.32;54.98
70909;BME280;58554;52.006;5.926;2023-03-01T01:54:10;102283.59;;;-3.36;55.72
70909;BME280;58554;52.006;5.926;2023-03-01T01:56:45;102286.19;;;-3.36;55.04
70909;BME280;58554;52.006;5.926;2023-03-01T01:59:16;102291.34;;;-3.37;55.83
70909;BME280;58554;52.006;5.926;2023-03-01T02:01:43;102295.63;;;-3.38;55.48
70909;BME280;58554;52.006;5.926;2023-03-01T02:04:12;102298.25;;;-3.36;55.74
70909;BME280;58554;52.006;5.926;2023-03-01T02:06:43;102292.97;;;-3.41;56.06
70909;BME280;58554;52.006;5.926;2023-03-01T02:09:19;102288.63;;;-3.42;55.25
70909;BME280;58554;52.006;5.926;2023-03-01T02:11:50;102285.19;;;-3.42;56.35
70909;BME280;58554;52.006;5.926;2023-03-01T02:14:18;102281.72;;;-3.43;55.97
70909;BME280;58554;52.006;5.926;2023-03-01T02:16:47;102288.63;;;-3.43;56.33
70909;BME280;58554;52.006;5.926;2023-03-01T02:19:26;102283.44;;;-3.43;56.23
70909;BME280;58554;52.006;5.926;2023-03-01T02:22:10;102279.09;;;-3.45;56.52
70909;BME280;58554;52.006;5.926;2023-03-01T02:24:49;102271.34;;;-3.45;56.31
70909;BME280;58554;52.006;5.926;2023-03-01T02:27:33;102264.44;;;-3.46;56.48
70909;BME280;58554;52.006;5.926;2023-03-01T02:30:10;102265.25;;;-3.47;56.46
70909;BME280;58554;52.006;5.926;2023-03-01T02:32:38;102261.78;;;-3.47;56.35
70909;BME280;58554;52.006;5.926;2023-03-01T02:35:08;102272.13;;;-3.47;56.51
70909;BME280;58554;52.006;5.926;2023-03-01T02:37:38;102268.66;;;-3.49;56.46
70909;BME280;58554;52.006;5.926;2023-03-01T02:40:10;102266.88;;;-3.50;56.07
70909;BME280;58554;52.006;5.926;2023-03-01T02:42:45;102256.53;;;-3.52;56.50
70909;BME280;58554;52.006;5.926;2023-03-01T02:45:20;102269.41;;;-3.53;56.42
70909;BME280;58554;52.006;5.926;2023-03-01T02:47:47;102267.63;;;-3.56;56.46
70909;BME280;58554;52.006;5.926;2023-03-01T02:50:22;102258.94;;;-3.58;56.29
70909;BME280;58554;52.006;5.926;2023-03-01T02:53:10;102261.50;;;-3.59;56.18
70909;BME280;58554;52.006;5.926;2023-03-01T02:55:43;102255.41;;;-3.61;56.56
70909;BME280;58554;52.006;5.926;2023-03-01T02:58:10;102255.34;;;-3.63;56.68
70909;BME280;58554;52.006;5.926;2023-03-01T03:00:40;102257.06;;;-3.63;56.30
70909;BME280;58554;52.006;5.926;2023-03-01T03:03:09;102257.03;;;-3.65;56.68
70909;BME280;58554;52.006;5.926;2023-03-01T03:05:39;102255.34;;;-3.65;56.55
70909;BME280;58554;52.006;5.926;2023-03-01T03:08:05;102246.69;;;-3.67;56.50
70909;BME280;58554;52.006;5.926;2023-03-01T03:10:34;102244.84;;;-3.69;56.39
70909;BME280;58554;52.006;5.926;2023-03-01T03:13:04;102241.34;;;-3.73;56.41
70909;BME280;58554;52.006;5.926;2023-03-01T03:15:34;102249.91;;;-3.74;56.96
70909;BME280;58554;52.006;5.926;2023-03-01T03:18:06;102242.16;;;-3.74;56.77
70909;BME280;58554;52.006;5.926;2023-03-01T03:20:36;102242.16;;;-3.74;56.74
70909;BME280;58554;52.006;5.926;2023-03-01T03:23:04;102250.72;;;-3.76;56.53
70909;BME280;58554;52.006;5.926;2023-03-01T03:25:31;102239.47;;;-3.78;56.71
70909;BME280;58554;52.006;5.926;2023-03-01T03:27:58;102236.84;;;-3.80;56.41
70909;BME280;58554;52.006;5.926;2023-03-01T03:30:26;102236.78;;;-3.83;56.55
70909;BME280;58554;52.006;5.926;2023-03-01T03:32:55;102238.47;;;-3.83;56.59
70909;BME280;58554;52.006;5.926;2023-03-01T03:35:27;102244.53;;;-3.83;56.71
70909;BME280;58554;52.006;5.926;2023-03-01T03:37:56;102236.78;;;-3.83;56.93
70909;BME280;58554;52.006;5.926;2023-03-01T03:40:24;102235.88;;;-3.83;56.88
70909;BME280;58554;52.006;5.926;2023-03-01T03:42:51;102234.09;;;-3.86;57.01
70909;BME280;58554;52.006;5.926;2023-03-01T03:45:18;102240.13;;;-3.87;57.10
70909;BME280;58554;52.006;5.926;2023-03-01T03:47:45;102233.13;;;-3.91;56.83
70909;BME280;58554;52.006;5.926;2023-03-01T03:50:13;102230.53;;;-3.91;57.01
70909;BME280;58554;52.006;5.926;2023-03-01T03:52:44;102231.31;;;-3.94;56.83
70909;BME280;58554;52.006;5.926;2023-03-01T03:55:12;102233.00;;;-3.96;57.03
70909;BME280;58554;52.006;5.926;2023-03-01T03:57:40;102233.81;;;-3.97;57.30
70909;BME280;58554;52.006;5.926;2023-03-01T04:00:11;102224.28;;;-3.99;57.17
70909;BME280;58554;52.006;5.926;2023-03-01T04:02:39;102229.50;;;-3.98;56.94
70909;BME280;58554;52.006;5.926;2023-03-01T04:05:08;102232.03;;;-3.99;56.99
70909;BME280;58554;52.006;5.926;2023-03-01T04:07:36;102229.41;;;-4.01;57.13
70909;BME280;58554;52.006;5.926;2023-03-01T04:10:10;102224.19;;;-4.02;57.18
70909;BME280;58554;52.006;5.926;2023-03-01T04:12:38;102226.72;;;-4.06;57.11
70909;BME280;58554;52.006;5.926;2023-03-01T04:15:07;102226.66;;;-4.07;57.11
70909;BME280;58554;52.006;5.926;2023-03-01T04:17:33;102224.03;;;-4.09;57.13
70909;BME280;58554;52.006;5.926;2023-03-01T04:20:00;102217.94;;;-4.11;57.39
70909;BME280;58554;52.006;5.926;2023-03-01T04:22:26;102218.84;;;-4.10;57.54
70909;BME280;58554;52.006;5.926;2023-03-01T04:24:53;102214.50;;;-4.11;57.68
70909;BME280;58554;52.006;5.926;2023-03-01T04:27:22;102214.50;;;-4.11;57.61
70909;BME280;58554;52.006;5.926;2023-03-01T04:29:49;102207.63;;;-4.11;57.95
70909;BME280;58554;52.006;5.926;2023-03-01T04:32:15;102213.69;;;-4.09;57.64
70909;BME280;58554;52.006;5.926;2023-03-01T04:34:42;102213.69;;;-4.10;57.84
70909;BME280;58554;52.006;5.926;2023-03-01T04:37:08;102211.97;;;-4.10;57.81
70909;BME280;58554;52.006;5.926;2023-03-01T04:39:35;102212.84;;;-4.09;58.03
70909;BME280;58554;52.006;5.926;2023-03-01T04:42:02;102211.09;;;-4.10;58.50
70909;BME280;58554;52.006;5.926;2023-03-01T04:44:31;102215.41;;;-4.09;58.17
70909;BME280;58554;52.006;5.926;2023-03-01T04:46:57;102212.78;;;-4.12;58.46
70909;BME280;58554;52.006;5.926;2023-03-01T04:49:24;102198.09;;;-4.13;59.22
70909;BME280;58554;52.006;5.926;2023-03-01T04:51:51;102206.69;;;-4.13;58.49
70909;BME280;58554;52.006;5.926;2023-03-01T04:54:17;102202.38;;;-4.14;58.51
70909;BME280;58554;52.006;5.926;2023-03-01T04:56:44;102201.53;;;-4.13;58.48
70909;BME280;58554;52.006;5.926;2023-03-01T04:59:10;102201.53;;;-4.13;58.54
70909;BME280;58554;52.006;5.926;2023-03-01T05:01:40;102198.94;;;-4.13;58.36
70909;BME280;58554;52.006;5.926;2023-03-01T05:04:06;102197.28;;;-4.12;58.32
70909;BME280;58554;52.006;5.926;2023-03-01T05:06:33;102186.03;;;-4.13;58.31
70909;BME280;58554;52.006;5.926;2023-03-01T05:09:00;102176.50;;;-4.15;58.50
70909;BME280;58554;52.006;5.926;2023-03-01T05:11:26;102175.66;;;-4.16;58.49
70909;BME280;58554;52.006;5.926;2023-03-01T05:13:53;102180.81;;;-4.16;58.41
70909;BME280;58554;52.006;5.926;2023-03-01T05:16:19;102184.22;;;-4.17;58.54
70909;BME280;58554;52.006;5.926;2023-03-01T05:18:49;102172.97;;;-4.19;58.13
70909;BME280;58554;52.006;5.926;2023-03-01T05:21:17;102168.66;;;-4.20;58.30
70909;BME280;58554;52.006;5.926;2023-03-01T05:23:44;102160.00;;;-4.22;58.58
70909;BME280;58554;52.006;5.926;2023-03-01T05:26:11;102158.22;;;-4.23;58.27
70909;BME280;58554;52.006;5.926;2023-03-01T05:28:38;102147.81;;;-4.26;58.82
70909;BME280;58554;52.006;5.926;2023-03-01T05:31:06;102145.19;;;-4.28;58.78
70909;BME280;58554;52.006;5.926;2023-03-01T05:33:33;102149.50;;;-4.28;58.94
70909;BME280;58554;52.006;5.926;2023-03-01T05:36:02;102147.75;;;-4.29;58.75
70909;BME280;58554;52.006;5.926;2023-03-01T05:38:30;102146.88;;;-4.30;58.77
70909;BME280;58554;52.006;5.926;2023-03-01T05:40:57;102145.09;;;-4.32;58.78
70909;BME280;58554;52.006;5.926;2023-03-01T05:43:23;102144.28;;;-4.31;58.96
70909;BME280;58554;52.006;5.926;2023-03-01T05:45:50;102153.75;;;-4.30;58.97
70909;BME280;58554;52.006;5.926;2023-03-01T05:48:18;102152.88;;;-4.31;59.15
70909;BME280;58554;52.006;5.926;2023-03-01T05:50:45;102154.59;;;-4.31;58.99
70909;BME280;58554;52.006;5.926;2023-03-01T05:53:16;102148.50;;;-4.33;58.83
70909;BME280;58554;52.006;5.926;2023-03-01T05:55:45;102144.16;;;-4.34;59.01
70909;BME280;58554;52.006;5.926;2023-03-01T05:58:14;102147.59;;;-4.35;58.97
70909;BME280;58554;52.006;5.926;2023-03-01T06:00:43;102138.94;;;-4.37;58.96
70909;BME280;58554;52.006;5.926;2023-03-01T06:03:12;102138.94;;;-4.37;59.06
70909;BME280;58554;52.006;5.926;2023-03-01T06:05:41;102138.94;;;-4.37;59.25
70909;BME280;58554;52.006;5.926;2023-03-01T06:08:09;102142.38;;;-4.37;59.70
70909;BME280;58554;52.006;5.926;2023-03-01T06:10:39;102136.38;;;-4.36;59.61
70909;BME280;58554;52.006;5.926;2023-03-01T06:13:06;102139.00;;;-4.34;59.83
70909;BME280;58554;52.006;5.926;2023-03-01T06:15:33;102145.94;;;-4.33;59.54
70909;BME280;58554;52.006;5.926;2023-03-01T06:17:59;102148.50;;;-4.33;59.63
70909;BME280;58554;52.006;5.926;2023-03-01T06:20:28;102149.34;;;-4.34;59.32
70909;BME280;58554;52.006;5.926;2023-03-01T06:22:55;102153.63;;;-4.35;59.63
70909;BME280;58554;52.006;5.926;2023-03-01T06:25:23;102147.59;;;-4.35;59.54
70909;BME280;58554;52.006;5.926;2023-03-01T06:27:55;102144.94;;;-4.38;59.25
70909;BME280;58554;52.006;5.926;2023-03-01T06:30:23;102147.50;;;-4.38;59.33
70909;BME280;58554;52.006;5.926;2023-03-01T06:32:52;102149.28;;;-4.37;59.62
70909;BME280;58554;52.006;5.926;2023-03-01T06:35:19;102150.09;;;-4.38;59.40
70909;BME280;58554;52.006;5.926;2023-03-01T06:37:47;102138.91;;;-4.39;59.43
70909;BME280;58554;52.006;5.926;2023-03-01T06:40:15;102141.53;;;-4.37;59.62
70909;BME280;58554;52.006;5.926;2023-03-01T06:42:44;102130.34;;;-4.36;59.96
70909;BME280;58554;52.006;5.926;2023-03-01T06:45:18;102130.44;;;-4.33;59.60
70909;BME280;58554;52.006;5.926;2023-03-01T06:47:46;102138.25;;;-4.30;59.79
70909;BME280;58554;52.006;5.926;2023-03-01T06:50:14;102139.22;;;-4.27;59.88
70909;BME280;58554;52.006;5.926;2023-03-01T06:52:42;102141.03;;;-4.22;59.86
70909;BME280;58554;52.006;5.926;2023-03-01T06:55:09;102145.47;;;-4.17;59.80
70909;BME280;58554;52.006;5.926;2023-03-01T06:57:35;102149.09;;;-4.10;60.19
70909;BME280;58554;52.006;5.926;2023-03-01T07:00:02;102153.53;;;-4.05;60.09
70909;BME280;58554;52.006;5.926;2023-03-01T07:02:33;102154.59;;;-3.98;60.47
70909;BME280;58554;52.006;5.926;2023-03-01T07:04:59;102159.09;;;-3.89;60.51
70909;BME280;58554;52.006;5.926;2023-03-01T07:07:26;102154.13;;;-3.80;60.54
70909;BME280;58554;52.006;5.926;2023-03-01T07:09:52;102151.09;;;-3.63;61.12
70909;BME280;58554;52.006;5.926;2023-03-01T07:12:19;102148.97;;;-3.43;61.36
70909;BME280;58554;52.006;5.926;2023-03-01T07:14:45;102143.44;;;-3.19;61.39
70909;BME280;58554;52.006;5.926;2023-03-01T07:17:12;102143.09;;;-2.95;61.56
70909;BME280;58554;52.006;5.926;2023-03-01T07:19:41;102143.66;;;-2.68;61.69
70909;BME280;58554;52.006;5.926;2023-03-01T07:22:07;102140.66;;;-2.44;61.64
70909;BME280;58554;52.006;5.926;2023-03-01T07:24:34;102146.34;;;-2.16;61.28
70909;BME280;58554;52.006;5.926;2023-03-01T07:27:01;102146.72;;;-1.93;61.60
70909;BME280;58554;52.006;5.926;2023-03-01T07:29:28;102137.56;;;-1.71;61.97
70909;BME280;58554;52.006;5.926;2023-03-01T07:31:55;102137.19;;;-1.36;62.55
70909;BME280;58554;52.006;5.926;2023-03-01T07:34:21;102134.25;;;-0.96;62.44
70909;BME280;58554;52.006;5.926;2023-03-01T07:36:50;102138.13;;;-0.61;62.40
70909;BME280;58554;52.006;5.926;2023-03-01T07:39:17;102126.34;;;-0.28;62.79
70909;BME280;58554;52.006;5.926;2023-03-01T07:41:43;102131.84;;;0.06;62.37
70909;BME280;58554;52.006;5.926;2023-03-01T07:44:10;102126.91;;;0.43;62.42
70909;BME280;58554;52.006;5.926;2023-03-01T07:46:36;102127.13;;;0.80;62.17
70909;BME280;58554;52.006;5.926;2023-03-01T07:49:03;102128.13;;;1.10;62.04
70909;BME280;58554;52.006;5.926;2023-03-01T07:51:29;102123.00;;;1.43;62.44
70909;BME280;58554;52.006;5.926;2023-03-01T07:53:59;102128.31;;;1.88;62.32
70909;BME280;58554;52.006;5.926;2023-03-01T07:56:25;102122.22;;;2.24;62.17
70909;BME280;58554;52.006;5.926;2023-03-01T07:58:52;102127.41;;;2.52;61.69
70909;BME280;58554;52.006;5.926;2023-03-01T08:01:20;102129.09;;;2.72;61.46
70909;BME280;58554;52.006;5.926;2023-03-01T08:03:47;102130.78;;;2.88;60.94
70909;BME280;58554;52.006;5.926;2023-03-01T08:06:16;102131.56;;;3.13;61.38
70909;BME280;58554;52.006;5.926;2023-03-01T08:08:44;102132.25;;;3.51;60.65
70909;BME280;58554;52.006;5.926;2023-03-01T08:11:15;102144.16;;;3.96;60.16
70909;BME280;58554;52.006;5.926;2023-03-01T08:13:42;102138.63;;;4.28;59.47
70909;BME280;58554;52.006;5.926;2023-03-01T08:16:11;102138.31;;;4.59;58.74
70909;BME280;58554;52.006;5.926;2023-03-01T08:18:39;102138.94;;;4.84;59.04
70909;BME280;58554;52.006;5.926;2023-03-01T08:21:09;102137.63;;;5.24;58.14
70909;BME280;58554;52.006;5.926;2023-03-01T08:23:37;102133.56;;;5.65;58.47
70909;BME280;58554;52.006;5.926;2023-03-01T08:26:06;102132.00;;;6.07;58.21
70909;BME280;58554;52.006;5.926;2023-03-01T08:28:37;102125.88;;;6.57;59.05
70909;BME280;58554;52.006;5.926;2023-03-01T08:31:13;102125.47;;;7.20;58.29
70909;BME280;58554;52.006;5.926;2023-03-01T08:33:42;102119.81;;;7.79;57.26
70909;BME280;58554;52.006;5.926;2023-03-01T08:36:09;102120.47;;;8.23;56.70
70909;BME280;58554;52.006;5.926;2023-03-01T08:38:37;102107.72;;;8.72;56.80
70909;BME280;58554;52.006;5.926;2023-03-01T08:41:04;102107.22;;;9.20;53.79
70909;BME280;58554;52.006;5.926;2023-03-01T08:43:37;102103.63;;;9.52;54.29
70909;BME280;58554;52.006;5.926;2023-03-01T08:46:04;102098.88;;;9.90;53.62
70909;BME280;58554;52.006;5.926;2023-03-01T08:48:30;102098.31;;;10.32;52.81
70909;BME280;58554;52.006;5.926;2023-03-01T08:51:07;102096.22;;;10.67;50.84
70909;BME280;58554;52.006;5.926;2023-03-01T08:53:34;102099.94;;;11.10;51.02
70909;BME280;58554;52.006;5.926;2023-03-01T08:56:01;102093.44;;;11.41;50.03
70909;BME280;58554;52.006;5.926;2023-03-01T08:58:27;102088.56;;;11.74;49.17
70909;BME280;58554;52.006;5.926;2023-03-01T09:00:56;102082.44;;;11.94;48.74
70909;BME280;58554;52.006;5.926;2023-03-01T09:03:24;102076.59;;;12.29;48.01
70909;BME280;58554;52.006;5.926;2023-03-01T09:05:51;102074.84;;;12.69;47.27
70909;BME280;58554;52.006;5.926;2023-03-01T09:08:18;102073.34;;;13.01;46.49
70909;BME280;58554;52.006;5.926;2023-03-01T09:10:46;102063.75;;;13.35;45.50
70909;BME280;58554;52.006;5.926;2023-03-01T09:13:12;102071.00;;;13.69;45.01
70909;BME280;58554;52.006;5.926;2023-03-01T09:15:39;102066.78;;;14.00;43.76
70909;BME280;58554;52.006;5.926;2023-03-01T09:18:08;102061.59;;;14.32;43.27
70909;BME280;58554;52.006;5.926;2023-03-01T09:20:35;102061.69;;;14.64;42.46
70909;BME280;58554;52.006;5.926;2023-03-01T09:23:01;102060.97;;;14.93;41.81
70909;BME280;58554;52.006;5.926;2023-03-01T09:25:28;102062.81;;;15.25;41.16
70909;BME280;58554;52.006;5.926;2023-03-01T09:27:55;102062.25;;;15.50;40.65
70909;BME280;58554;52.006;5.926;2023-03-01T09:30:21;102048.38;;;15.75;40.21
70909;BME280;58554;52.006;5.926;2023-03-01T09:32:48;102054.06;;;15.85;38.63
70909;BME280;58554;52.006;5.926;2023-03-01T09:35:17;102050.94;;;15.76;39.09
70909;BME280;58554;52.006;5.926;2023-03-01T09:37:44;102036.56;;;15.95;38.98
70909;BME280;58554;52.006;5.926;2023-03-01T09:40:14;102040.19;;;15.94;37.14
70909;BME280;58554;52.006;5.926;2023-03-01T09:42:49;102041.31;;;15.90;36.68
70909;BME280;58554;52.006;5.926;2023-03-01T09:45:27;102037.53;;;15.94;35.63
70909;BME280;58554;52.006;5.926;2023-03-01T09:48:00;102039.94;;;15.83;36.47
70909;BME280;58554;52.006;5.926;2023-03-01T09:50:35;102035.16;;;15.73;35.20
70909;BME280;58554;52.006;5.926;2023-03-01T09:53:11;102032.06;;;15.95;36.24
70909;BME280;58554;52.006;5.926;2023-03-01T09:55:44;102022.81;;;16.31;35.84
70909;BME280;58554;52.006;5.926;2023-03-01T09:58:31;102020.78;;;16.35;32.48
70909;BME280;58554;52.006;5.926;2023-03-01T10:01:15;102020.97;;;16.17;34.17
70909;BME280;58554;52.006;5.926;2023-03-01T10:04:04;102013.84;;;16.32;34.50
70909;BME280;58554;52.006;5.926;2023-03-01T10:06:55;102016.69;;;16.87;34.97
70909;BME280;58554;52.006;5.926;2023-03-01T10:09:34;102010.00;;;17.48;34.93
70909;BME280;58554;52.006;5.926;2023-03-01T10:12:04;102007.28;;;17.75;33.43
70909;BME280;58554;52.006;5.926;2023-03-01T10:14:37;102009.59;;;17.82;33.29
70909;BME280;58554;52.006;5.926;2023-03-01T10:17:24;102008.47;;;17.71;32.72
70909;BME280;58554;52.006;5.926;2023-03-01T10:19:55;102001.56;;;17.82;33.37
70909;BME280;58554;52.006;5.926;2023-03-01T10:22:50;102005.75;;;18.11;32.60
70909;BME280;58554;52.006;5.926;2023-03-01T10:25:26;101998.78;;;18.34;31.58
70909;BME280;58554;52.006;5.926;2023-03-01T10:28:15;101991.59;;;18.35;31.46
70909;BME280;58554;52.006;5.926;2023-03-01T10:30:44;101992.00;;;18.41;32.35
70909;BME280;58554;52.006;5.926;2023-03-01T10:33:16;101998.28;;;18.79;31.79
70909;BME280;58554;52.006;5.926;2023-03-01T10:35:46;101982.72;;;19.21;31.68
70909;BME280;58554;52.006;5.926;2023-03-01T10:38:16;101982.53;;;19.59;30.90
70909;BME280;58554;52.006;5.926;2023-03-01T10:40:51;101986.50;;;19.89;29.93
70909;BME280;58554;52.006;5.926;2023-03-01T10:43:21;101969.56;;;20.00;30.01
70909;BME280;58554;52.006;5.926;2023-03-01T10:45:49;101972.47;;;20.08;29.81
70909;BME280;58554;52.006;5.926;2023-03-01T10:48:18;101968.34;;;20.15;29.75
70909;BME280;58554;52.006;5.926;2023-03-01T10:50:48;101969.81;;;19.97;29.73
70909;BME280;58554;52.006;5.926;2023-03-01T10:53:29;101960.53;;;20.01;27.14
70909;BME280;58554;52.006;5.926;2023-03-01T10:56:04;101967.69;;;19.78;28.53
70909;BME280;58554;52.006;5.926;2023-03-01T10:58:33;101959.91;;;19.97;29.87
70909;BME280;58554;52.006;5.926;2023-03-01T11:01:03;101969.59;;;20.45;29.15
70909;BME280;58554;52.006;5.926;2023-03-01T11:03:34;101955.56;;;20.53;27.43
70909;BME280;58554;52.006;5.926;2023-03-01T11:06:05;101957.38;;;20.63;28.35
70909;BME280;58554;52.006;5.926;2023-03-01T11:08:49;101951.47;;;20.81;27.35
70909;BME280;58554;52.006;5.926;2023-03-01T11:11:23;101968.09;;;20.86;26.45
70909;BME280;58554;52.006;5.926;2023-03-01T11:13:58;101955.28;;;20.56;27.17
70909;BME280;58554;52.006;5.926;2023-03-01T11:16:32;101946.16;;;20.58;26.56
70909;BME280;58554;52.006;5.926;2023-03-01T11:19:15;101948.94;;;20.68;25.59
70909;BME280;58554;52.006;5.926;2023-03-01T11:21:50;101951.88;;;20.65;26.96
70909;BME280;58554;52.006;5.926;2023-03-01T11:24:33;101958.78;;;20.79;27.08
70909;BME280;58554;52.006;5.926;2023-03-01T11:27:15;101948.97;;;21.00;25.80
70909;BME280;58554;52.006;5.926;2023-03-01T11:29:50;101954.69;;;21.07;26.28
70909;BME280;58554;52.006;5.926;2023-03-01T11:32:24;101943.59;;;21.00;26.64
70909;BME280;58554;52.006;5.926;2023-03-01T11:34:57;101941.94;;;20.77;26.57
70909;BME280;58554;52.006;5.926;2023-03-01T11:37:36;101942.66;;;19.66;25.73
70909;BME280;58554;52.006;5.926;2023-03-01T11:40:16;101943.97;;;18.01;26.84
70909;BME280;58554;52.006;5.926;2023-03-01T11:43:05;101946.31;;;16.45;27.01
70909;BME280;58554;52.006;5.926;2023-03-01T11:45:51;101943.09;;;15.06;28.04
70909;BME280;58554;52.006;5.926;2023-03-01T11:48:43;101949.72;;;13.84;29.40
70909;BME280;58554;52.006;5.926;2023-03-01T11:51:24;101952.78;;;13.23;30.74
70909;BME280;58554;52.006;5.926;2023-03-01T11:54:12;101948.69;;;13.87;31.36
70909;BME280;58554;52.006;5.926;2023-03-01T11:57:00;101938.28;;;15.12;30.57
70909;BME280;58554;52.006;5.926;2023-03-01T11:59:49;101946.81;;;16.08;29.49
70909;BME280;58554;52.006;5.926;2023-03-01T12:06:03;101936.78;;;18.28;29.29
70909;BME280;58554;52.006;5.926;2023-03-01T12:08:55;101928.81;;;18.89;26.85
70909;BME280;58554;52.006;5.926;2023-03-01T12:11:41;101929.53;;;18.91;26.14
70909;BME280;58554;52.006;5.926;2023-03-01T12:14:44;101924.28;;;19.13;25.39
70909;BME280;58554;52.006;5.926;2023-03-01T12:20:28;101917.75;;;19.64;26.34
70909;BME280;58554;52.006;5.926;2023-03-01T12:23:39;101912.75;;;19.71;25.19
70909;BME280;58554;52.006;5.926;2023-03-01T12:26:31;101907.41;;;19.59;24.95
70909;BME280;58554;52.006;5.926;2023-03-01T12:29:23;101911.84;;;19.48;25.37
70909;BME280;58554;52.006;5.926;2023-03-01T12:32:15;101904.59;;;19.72;24.89
70909;BME280;58554;52.006;5.926;2023-03-01T12:38:17;101880.44;;;19.72;25.90
70909;BME280;58554;52.006;5.926;2023-03-01T12:41:13;101892.19;;;20.28;25.19
70909;BME280;58554;52.006;5.926;2023-03-01T12:44:07;101890.19;;;20.63;25.22
70909;BME280;58554;52.006;5.926;2023-03-01T12:46:49;101886.38;;;20.77;24.46
70909;BME280;58554;52.006;5.926;2023-03-01T12:49:35;101882.91;;;20.87;25.50
70909;BME280;58554;52.006;5.926;2023-03-01T12:52:11;101875.59;;;21.10;25.10
70909;BME280;58554;52.006;5.926;2023-03-01T12:54:42;101871.53;;;21.15;25.32
70909;BME280;58554;52.006;5.926;2023-03-01T12:57:15;101874.63;;;21.11;22.82
70909;BME280;58554;52.006;5.926;2023-03-01T13:00:02;101866.81;;;20.75;24.34
70909;BME280;58554;52.006;5.926;2023-03-01T13:02:48;101857.22;;;20.61;24.88
70909;BME280;58554;52.006;5.926;2023-03-01T13:05:33;101856.97;;;20.65;23.90
70909;BME280;58554;52.006;5.926;2023-03-01T13:08:15;101853.34;;;20.43;24.24
70909;BME280;58554;52.006;5.926;2023-03-01T13:10:50;101839.91;;;20.43;25.21
70909;BME280;58554;52.006;5.926;2023-03-01T13:13:23;101838.44;;;20.50;25.09
70909;BME280;58554;52.006;5.926;2023-03-01T13:15:52;101835.53;;;20.74;25.18
70909;BME280;58554;52.006;5.926;2023-03-01T13:18:31;101829.97;;;20.87;23.82
70909;BME280;58554;52.006;5.926;2023-03-01T13:21:06;101825.47;;;20.88;23.23